Time;durP1;ratioP1;P1;durP2;ratioP2;P2;SDS_P1;SDS_P2;PMS_P1;PMS_P2;Temp;Humidity;BMP_temperature;BMP_pressure;BME280_temperature;BME280_humidity;BME280_pressure;Samples;Min_cycle;Max_cycle;Signal;HPM_P1;HPM_P2
2023/12/09 00:01:51;;;;;;;150.07;53.05;;;5.20;99.90;;;;;;5087065;28;20214;-70
2023/12/09 00:04:18;;;;;;;107.07;46.65;;;5.30;99.90;;;;;;5087588;28;20276;-68
2023/12/09 00:06:48;;;;;;;132.18;46.47;;;5.40;99.90;;;;;;5080151;28;20201;-70
2023/12/09 00:09:15;;;;;;;99.38;44.13;;;5.50;99.90;;;;;;5088929;28;20210;-72
2023/12/09 00:11:42;;;;;;;110.90;43.67;;;5.50;99.90;;;;;;5081705;28;20199;-69
2023/12/09 00:14:09;;;;;;;122.97;47.75;;;5.50;99.90;;;;;;5086032;28;20227;-72
2023/12/09 00:16:36;;;;;;;153.30;51.83;;;5.40;99.90;;;;;;5085423;28;20206;-71
2023/12/09 00:19:06;;;;;;;144.75;51.65;;;5.40;99.90;;;;;;5089023;28;20210;-72
2023/12/09 00:21:33;;;;;;;158.48;47.78;;;5.40;99.90;;;;;;5087780;28;20199;-71
2023/12/09 00:24:00;;;;;;;152.77;48.33;;;5.50;99.90;;;;;;5086387;28;20247;-70
2023/12/09 00:26:27;;;;;;;103.70;37.67;;;5.50;99.90;;;;;;5083294;28;20204;-70
2023/12/09 00:28:54;;;;;;;138.63;44.47;;;5.50;99.90;;;;;;5075697;28;20199;-70
2023/12/09 00:31:21;;;;;;;142.25;49.47;;;5.60;99.90;;;;;;5087262;28;20623;-70
2023/12/09 00:33:48;;;;;;;120.75;43.38;;;5.60;99.90;;;;;;5087380;28;20199;-69
2023/12/09 00:36:17;;;;;;;92.55;41.58;;;5.60;99.90;;;;;;5084791;28;20665;-71
2023/12/09 00:38:44;;;;;;;138.68;47.97;;;5.70;99.90;;;;;;5082879;28;20649;-72
2023/12/09 00:41:11;;;;;;;118.45;41.90;;;5.80;99.90;;;;;;5082817;28;20606;-69
2023/12/09 00:43:38;;;;;;;137.20;46.90;;;5.80;99.90;;;;;;5076750;28;20206;-73
2023/12/09 00:46:06;;;;;;;104.70;39.70;;;5.80;99.90;;;;;;5086882;28;20227;-74
2023/12/09 00:48:33;;;;;;;147.48;48.00;;;5.80;99.90;;;;;;5083532;28;20202;-73
2023/12/09 00:51:00;;;;;;;139.35;45.25;;;5.80;99.90;;;;;;5084100;28;20629;-72
2023/12/09 00:53:28;;;;;;;68.88;36.20;;;5.80;99.90;;;;;;5086357;28;20225;-70
2023/12/09 00:55:55;;;;;;;141.25;47.15;;;5.80;99.90;;;;;;5082158;28;20284;-70
2023/12/09 00:58:27;;;;;;;144.85;48.83;;;5.90;99.90;;;;;;5087519;28;20227;-71
2023/12/09 01:00:55;;;;;;;112.03;45.58;;;5.90;99.90;;;;;;5084222;28;20253;-72
2023/12/09 01:03:22;;;;;;;143.70;48.00;;;6.00;99.90;;;;;;5081473;28;20721;-69
2023/12/09 01:05:50;;;;;;;82.72;37.10;;;6.10;99.90;;;;;;5090282;28;20215;-70
2023/12/09 01:08:17;;;;;;;106.65;39.88;;;6.10;99.90;;;;;;5090232;28;20668;-71
2023/12/09 01:10:46;;;;;;;88.70;39.60;;;6.20;99.90;;;;;;5084837;28;20260;-69
2023/12/09 01:13:13;;;;;;;105.38;42.05;;;6.20;99.90;;;;;;5082339;28;20235;-70
2023/12/09 01:15:40;;;;;;;116.07;43.47;;;6.20;99.90;;;;;;5091554;28;20230;-70
2023/12/09 01:18:07;;;;;;;104.95;43.35;;;6.30;99.90;;;;;;5089489;28;20203;-70
2023/12/09 01:20:34;;;;;;;75.75;34.72;;;6.40;99.90;;;;;;5085466;28;20202;-70
2023/12/09 01:23:00;;;;;;;97.35;39.17;;;6.50;99.90;;;;;;5091402;28;20201;-70
2023/12/09 01:25:27;;;;;;;85.55;40.00;;;6.60;99.90;;;;;;5091039;28;20222;-70
2023/12/09 01:27:56;;;;;;;76.15;35.75;;;6.70;99.90;;;;;;5094012;28;20264;-69
2023/12/09 01:30:23;;;;;;;86.82;38.22;;;6.70;99.90;;;;;;5096460;28;20231;-70
2023/12/09 01:32:50;;;;;;;80.70;36.40;;;6.70;99.90;;;;;;5088512;28;20199;-69
2023/12/09 01:35:17;;;;;;;101.35;43.10;;;6.80;99.90;;;;;;5094094;28;20511;-71
2023/12/09 01:37:44;;;;;;;74.22;38.53;;;6.80;99.90;;;;;;5085501;28;20284;-70
2023/12/09 01:40:15;;;;;;;111.10;43.53;;;6.90;99.90;;;;;;5084965;28;20563;-70
2023/12/09 01:42:42;;;;;;;89.63;38.63;;;6.80;99.90;;;;;;5088418;28;20609;-68
2023/12/09 01:45:11;;;;;;;110.05;45.45;;;6.80;99.90;;;;;;5088188;28;20247;-69
2023/12/09 01:47:39;;;;;;;83.32;40.58;;;6.80;99.90;;;;;;5088433;28;20209;-71
2023/12/09 01:50:08;;;;;;;85.90;36.83;;;6.90;99.90;;;;;;5087234;28;20207;-70
2023/12/09 01:52:35;;;;;;;63.97;33.70;;;7.00;99.90;;;;;;5085411;28;20561;-71
2023/12/09 01:55:03;;;;;;;87.13;39.03;;;7.10;99.90;;;;;;5089294;28;20218;-69
2023/12/09 01:57:30;;;;;;;81.47;38.85;;;7.10;99.90;;;;;;5089569;28;20211;-69
2023/12/09 01:59:58;;;;;;;97.35;41.67;;;7.20;99.90;;;;;;5080572;28;20245;-69
2023/12/09 02:02:26;;;;;;;136.43;46.60;;;7.10;99.90;;;;;;5085583;28;20248;-68
2023/12/09 02:04:56;;;;;;;104.43;43.47;;;7.00;99.90;;;;;;5089431;28;20699;-70
2023/12/09 02:07:23;;;;;;;105.40;43.85;;;6.90;99.90;;;;;;5089258;28;20249;-70
2023/12/09 02:09:50;;;;;;;122.65;47.38;;;6.80;99.90;;;;;;5087498;28;20234;-68
2023/12/09 02:12:27;;;;;;;113.18;42.75;;;6.80;99.90;;;;;;5099196;28;20243;-69
2023/12/09 02:15:03;;;;;;;123.53;47.70;;;6.80;99.90;;;;;;5091463;28;20222;-67
2023/12/09 02:17:36;;;;;;;107.60;42.05;;;6.90;99.90;;;;;;5089489;28;20202;-68
2023/12/09 02:20:03;;;;;;;103.70;44.70;;;6.90;99.90;;;;;;5088415;28;20227;-70
2023/12/09 02:22:31;;;;;;;109.78;43.65;;;6.80;99.90;;;;;;5086261;28;20210;-72
2023/12/09 02:24:59;;;;;;;114.55;45.20;;;6.90;99.90;;;;;;5087774;28;20226;-72
2023/12/09 02:27:32;;;;;;;112.22;45.63;;;6.90;99.90;;;;;;5081798;28;20618;-73
2023/12/09 02:30:11;;;;;;;114.90;46.63;;;6.90;99.90;;;;;;5090308;28;20203;-73
2023/12/09 02:32:39;;;;;;;101.57;43.28;;;7.00;99.90;;;;;;5086298;28;20206;-70
2023/12/09 02:35:08;;;;;;;101.20;43.05;;;7.00;99.90;;;;;;5096940;28;20313;-69
2023/12/09 02:37:36;;;;;;;89.43;43.47;;;7.10;99.90;;;;;;5088142;28;20199;-69
2023/12/09 02:40:09;;;;;;;129.98;45.50;;;7.20;99.90;;;;;;5086651;28;20257;-72
2023/12/09 02:42:37;;;;;;;93.22;42.90;;;7.20;99.90;;;;;;5094464;28;20203;-70
2023/12/09 02:45:05;;;;;;;79.20;41.35;;;7.20;99.90;;;;;;5089509;28;20709;-70
2023/12/09 02:47:32;;;;;;;96.38;44.35;;;7.20;99.90;;;;;;5088029;28;20259;-70
2023/12/09 02:50:00;;;;;;;75.22;38.90;;;7.20;99.90;;;;;;5091459;28;20210;-70
2023/12/09 02:52:27;;;;;;;101.32;43.45;;;7.20;99.90;;;;;;5080471;28;20224;-71
2023/12/09 02:54:54;;;;;;;77.85;36.30;;;7.20;99.90;;;;;;5090955;28;20233;-68
2023/12/09 02:57:23;;;;;;;79.65;41.00;;;7.20;99.90;;;;;;5089492;28;20635;-70
2023/12/09 02:59:50;;;;;;;118.95;44.10;;;7.30;99.90;;;;;;5088318;28;20272;-73
2023/12/09 03:02:16;;;;;;;108.65;45.13;;;7.40;99.90;;;;;;5081435;28;20614;-70
2023/12/09 03:04:43;;;;;;;95.43;41.80;;;7.40;99.90;;;;;;5087878;28;20252;-72
2023/12/09 03:07:10;;;;;;;89.43;41.25;;;7.40;99.90;;;;;;5092891;28;20225;-69
2023/12/09 03:09:37;;;;;;;98.57;44.63;;;7.40;99.90;;;;;;5093561;28;20202;-72
2023/12/09 03:12:05;;;;;;;70.85;39.55;;;7.40;99.90;;;;;;5092334;28;20653;-71
2023/12/09 03:14:34;;;;;;;64.10;35.90;;;7.40;99.90;;;;;;5085791;28;20214;-68
2023/12/09 03:17:01;;;;;;;102.30;43.00;;;7.50;99.90;;;;;;5091320;28;20200;-68
2023/12/09 03:19:28;;;;;;;126.00;47.75;;;7.50;99.90;;;;;;5083323;28;20439;-71
2023/12/09 03:21:55;;;;;;;100.35;41.58;;;7.60;99.90;;;;;;5086933;28;20308;-68
2023/12/09 03:24:22;;;;;;;112.50;49.40;;;7.70;99.90;;;;;;5086201;28;20370;-71
2023/12/09 03:26:50;;;;;;;84.75;39.85;;;7.60;99.90;;;;;;5088259;28;20241;-69
2023/12/09 03:29:18;;;;;;;77.43;39.30;;;7.60;99.90;;;;;;5089911;28;20209;-68
2023/12/09 03:31:46;;;;;;;71.80;39.15;;;7.60;99.90;;;;;;5080982;28;20666;-71
2023/12/09 03:34:13;;;;;;;74.75;38.90;;;7.60;99.90;;;;;;5091653;28;20242;-71
2023/12/09 03:36:40;;;;;;;91.07;43.90;;;7.60;99.90;;;;;;5086456;28;20629;-69
2023/12/09 03:39:09;;;;;;;98.50;48.05;;;7.60;99.90;;;;;;5089831;28;20203;-71
2023/12/09 03:41:36;;;;;;;88.15;42.95;;;7.60;99.90;;;;;;5084438;28;20259;-72
2023/12/09 03:44:03;;;;;;;69.55;40.90;;;7.50;99.90;;;;;;5086061;28;20195;-70
2023/12/09 03:46:30;;;;;;;103.10;43.78;;;7.50;99.90;;;;;;5086319;28;20208;-69
2023/12/09 03:48:58;;;;;;;67.10;39.00;;;7.50;99.90;;;;;;5081885;28;20439;-68
2023/12/09 03:51:25;;;;;;;71.97;38.88;;;7.60;99.90;;;;;;5089068;28;20202;-71
2023/12/09 03:53:52;;;;;;;103.72;46.20;;;7.60;99.90;;;;;;5089925;28;20738;-68
2023/12/09 03:56:21;;;;;;;70.25;37.83;;;7.60;99.90;;;;;;5085802;28;20223;-69
2023/12/09 03:58:48;;;;;;;70.25;36.33;;;7.60;99.90;;;;;;5084573;28;20215;-69
2023/12/09 04:01:15;;;;;;;82.53;40.33;;;7.60;99.90;;;;;;5084554;28;20198;-71
2023/12/09 04:03:42;;;;;;;59.05;35.28;;;7.60;99.90;;;;;;5085243;28;20609;-68
2023/12/09 04:06:11;;;;;;;62.28;36.10;;;7.50;99.90;;;;;;5087534;28;20203;-69
2023/12/09 04:08:38;;;;;;;82.00;42.50;;;7.60;99.90;;;;;;5088252;28;20246;-71
2023/12/09 04:11:05;;;;;;;64.18;36.22;;;7.60;99.90;;;;;;5087932;28;20226;-68
2023/12/09 04:13:33;;;;;;;77.88;37.92;;;7.70;99.90;;;;;;5090111;28;20282;-71
2023/12/09 04:16:00;;;;;;;79.13;37.58;;;7.70;99.90;;;;;;5082673;28;20329;-70
2023/12/09 04:18:27;;;;;;;72.60;36.47;;;7.70;99.90;;;;;;5079214;28;20279;-70
2023/12/09 04:20:54;;;;;;;52.55;30.73;;;7.60;99.90;;;;;;5086559;28;20440;-69
2023/12/09 04:23:23;;;;;;;83.25;37.65;;;7.60;99.90;;;;;;5078999;28;20246;-68
2023/12/09 04:25:50;;;;;;;69.35;36.70;;;7.60;99.90;;;;;;5080838;28;20223;-71
2023/12/09 04:28:17;;;;;;;68.70;35.83;;;7.70;99.90;;;;;;5084629;28;20209;-69
2023/12/09 04:30:44;;;;;;;64.88;35.70;;;7.80;99.90;;;;;;5086568;28;20233;-71
2023/12/09 04:33:11;;;;;;;58.75;30.58;;;7.70;99.90;;;;;;5090378;28;20199;-69
2023/12/09 04:35:38;;;;;;;77.55;36.13;;;7.80;99.90;;;;;;5084218;28;20222;-67
2023/12/09 04:38:05;;;;;;;52.90;31.45;;;7.70;99.90;;;;;;5085638;28;20666;-70
2023/12/09 04:40:33;;;;;;;65.28;34.08;;;7.70;99.90;;;;;;5091885;28;20202;-70
2023/12/09 04:43:00;;;;;;;64.60;34.83;;;7.70;99.90;;;;;;5091473;28;20241;-68
2023/12/09 04:45:27;;;;;;;54.85;32.20;;;7.70;99.90;;;;;;5090802;28;20218;-70
2023/12/09 04:47:54;;;;;;;44.03;28.35;;;7.60;99.90;;;;;;5083868;28;20241;-69
2023/12/09 04:50:22;;;;;;;68.13;32.40;;;7.60;99.90;;;;;;5090427;28;20677;-72
2023/12/09 04:52:49;;;;;;;48.78;28.70;;;7.60;99.90;;;;;;5084452;28;20211;-71
2023/12/09 04:55:16;;;;;;;57.85;31.60;;;7.60;99.90;;;;;;5088066;28;20274;-70
2023/12/09 04:57:45;;;;;;;66.45;35.00;;;7.60;99.90;;;;;;5088025;28;20204;-70
2023/12/09 05:00:13;;;;;;;56.30;31.60;;;7.60;99.90;;;;;;5084466;28;20752;-71
2023/12/09 05:02:40;;;;;;;45.15;27.67;;;7.60;99.90;;;;;;5091000;28;20243;-71
2023/12/09 05:05:09;;;;;;;80.00;35.15;;;7.60;99.90;;;;;;5090112;28;20251;-70
2023/12/09 05:07:36;;;;;;;50.90;29.63;;;7.60;99.90;;;;;;5090708;28;20574;-69
2023/12/09 05:10:03;;;;;;;52.47;30.02;;;7.60;99.90;;;;;;5088006;28;20673;-69
2023/12/09 05:12:30;;;;;;;49.80;29.52;;;7.60;99.90;;;;;;5085192;28;20210;-69
2023/12/09 05:14:59;;;;;;;53.15;28.35;;;7.70;99.90;;;;;;5088792;28;20769;-73
2023/12/09 05:17:26;;;;;;;50.53;28.30;;;7.80;99.90;;;;;;5088972;28;20276;-70
2023/12/09 05:19:53;;;;;;;62.15;32.55;;;7.80;99.90;;;;;;5086917;28;20634;-69
2023/12/09 05:22:21;;;;;;;40.63;23.15;;;7.70;99.90;;;;;;5089653;28;20659;-69
2023/12/09 05:24:48;;;;;;;50.15;25.90;;;7.80;99.90;;;;;;5086244;28;20219;-71
2023/12/09 05:27:15;;;;;;;32.55;23.33;;;7.70;99.90;;;;;;5087931;28;20237;-70
2023/12/09 05:29:43;;;;;;;44.40;25.63;;;7.80;99.90;;;;;;5099253;28;20256;-69
2023/12/09 05:32:11;;;;;;;47.92;26.23;;;7.90;99.90;;;;;;5086135;28;20205;-71
2023/12/09 05:34:38;;;;;;;42.10;22.90;;;7.90;99.90;;;;;;5087679;28;20276;-70
2023/12/09 05:37:05;;;;;;;43.17;27.10;;;7.90;99.90;;;;;;5084823;28;20242;-69
2023/12/09 05:39:32;;;;;;;33.78;21.50;;;7.90;99.90;;;;;;5087028;28;20207;-68
2023/12/09 05:42:00;;;;;;;48.33;23.77;;;8.00;99.90;;;;;;5090858;28;20264;-71
2023/12/09 05:44:27;;;;;;;37.97;22.85;;;8.00;99.90;;;;;;5091536;28;20264;-71
2023/12/09 05:46:54;;;;;;;35.50;21.33;;;7.90;99.90;;;;;;5090007;28;20195;-70
2023/12/09 05:49:22;;;;;;;36.97;22.83;;;7.90;99.90;;;;;;5089232;28;20238;-69
2023/12/09 05:51:49;;;;;;;30.63;20.05;;;7.90;99.90;;;;;;5080754;28;20250;-69
2023/12/09 05:54:16;;;;;;;46.78;26.83;;;7.90;99.90;;;;;;5082758;28;20230;-69
2023/12/09 05:56:48;;;;;;;32.35;20.13;;;7.80;99.90;;;;;;5087223;28;20704;-72
2023/12/09 05:59:15;;;;;;;35.30;21.70;;;7.90;99.90;;;;;;5091408;28;20225;-71
2023/12/09 06:01:42;;;;;;;30.80;19.98;;;7.90;99.90;;;;;;5093047;28;20266;-69
2023/12/09 06:04:09;;;;;;;29.85;18.48;;;8.00;99.90;;;;;;5082414;28;20226;-68
2023/12/09 06:06:38;;;;;;;44.95;21.70;;;8.00;99.90;;;;;;5084058;28;20206;-72
2023/12/09 06:09:05;;;;;;;42.60;23.40;;;8.00;99.90;;;;;;5088965;28;20227;-69
2023/12/09 06:11:33;;;;;;;29.30;18.80;;;8.00;99.90;;;;;;5086879;28;20867;-70
2023/12/09 06:14:00;;;;;;;36.70;19.25;;;8.00;99.90;;;;;;5091876;28;20285;-70
2023/12/09 06:16:27;;;;;;;37.05;21.20;;;7.90;99.90;;;;;;5094600;28;20276;-73
2023/12/09 06:18:54;;;;;;;33.47;16.13;;;7.80;99.90;;;;;;5087658;28;20649;-70
2023/12/09 06:21:22;;;;;;;38.05;19.55;;;7.90;99.90;;;;;;5095128;28;20613;-68
2023/12/09 06:23:51;;;;;;;40.05;20.83;;;7.90;99.90;;;;;;5093586;28;20596;-71
2023/12/09 06:26:18;;;;;;;38.63;18.90;;;7.80;99.90;;;;;;5093503;28;20231;-68
2023/12/09 06:28:45;;;;;;;34.90;20.92;;;7.80;99.90;;;;;;5094826;28;20210;-66
2023/12/09 06:31:12;;;;;;;35.33;20.55;;;7.80;99.90;;;;;;5094118;28;20193;-73
2023/12/09 06:33:39;;;;;;;35.10;22.02;;;7.90;99.90;;;;;;5094671;28;20753;-71
2023/12/09 06:36:07;;;;;;;40.45;21.27;;;7.70;99.90;;;;;;5094948;28;20226;-68
2023/12/09 06:38:37;;;;;;;50.38;21.20;;;7.70;99.90;;;;;;5100937;28;20255;-69
2023/12/09 06:41:06;;;;;;;35.83;18.65;;;7.80;99.90;;;;;;5094897;28;20199;-72
2023/12/09 06:43:33;;;;;;;35.53;19.95;;;7.80;99.90;;;;;;5087017;28;20206;-68
2023/12/09 06:46:00;;;;;;;30.15;17.98;;;7.90;99.90;;;;;;5093549;28;20581;-69
2023/12/09 06:48:27;;;;;;;41.67;19.27;;;7.80;99.90;;;;;;5094726;28;20249;-72
2023/12/09 06:50:54;;;;;;;37.10;22.17;;;7.80;99.90;;;;;;5094896;28;20626;-67
2023/12/09 06:53:21;;;;;;;31.90;19.98;;;7.80;99.90;;;;;;5094176;28;20209;-70
2023/12/09 06:55:48;;;;;;;28.95;18.13;;;7.80;99.90;;;;;;5094187;28;20705;-69
2023/12/09 06:58:16;;;;;;;31.20;20.45;;;7.80;99.90;;;;;;5094121;28;20724;-68
2023/12/09 07:00:44;;;;;;;31.20;18.27;;;7.70;99.90;;;;;;5087985;28;20248;-72
2023/12/09 07:03:13;;;;;;;38.70;21.48;;;7.70;99.90;;;;;;5093206;28;20216;-72
2023/12/09 07:05:40;;;;;;;34.35;19.42;;;7.80;99.90;;;;;;5094444;28;20741;-69
2023/12/09 07:08:09;;;;;;;38.00;19.58;;;7.70;99.90;;;;;;5094063;28;20265;-70
2023/12/09 07:10:36;;;;;;;33.67;19.83;;;7.80;99.90;;;;;;5095181;28;20285;-69
2023/12/09 07:13:04;;;;;;;27.15;18.17;;;7.90;99.90;;;;;;5093460;28;20198;-67
2023/12/09 07:15:34;;;;;;;32.38;18.15;;;7.90;99.90;;;;;;5094207;28;20719;-69
2023/12/09 07:18:01;;;;;;;36.55;22.40;;;7.80;99.90;;;;;;5093816;28;20221;-69
2023/12/09 07:20:28;;;;;;;36.90;17.05;;;7.70;99.90;;;;;;5093745;28;20248;-70
2023/12/09 07:22:55;;;;;;;30.00;19.00;;;7.70;99.90;;;;;;5093693;28;20234;-70
2023/12/09 07:25:24;;;;;;;42.95;20.70;;;7.60;99.90;;;;;;5094597;28;20714;-70
2023/12/09 07:27:51;;;;;;;39.42;19.58;;;7.60;99.90;;;;;;5089413;28;20198;-69
2023/12/09 07:30:20;;;;;;;33.15;18.50;;;7.60;99.90;;;;;;5094074;28;20202;-68
2023/12/09 07:32:49;;;;;;;29.80;17.50;;;7.70;99.90;;;;;;5093288;28;20206;-70
2023/12/09 07:35:17;;;;;;;34.80;19.65;;;7.80;99.90;;;;;;5097123;28;20253;-72
2023/12/09 07:37:44;;;;;;;22.10;14.23;;;7.80;99.90;;;;;;5088694;28;20223;-70
2023/12/09 07:40:12;;;;;;;28.55;16.95;;;7.80;99.90;;;;;;5093375;28;20365;-68
2023/12/09 07:42:39;;;;;;;32.95;17.70;;;7.80;99.90;;;;;;5090037;28;20221;-70
2023/12/09 07:45:07;;;;;;;23.65;14.38;;;7.80;99.90;;;;;;5085916;28;20287;-69
2023/12/09 07:47:34;;;;;;;22.98;14.50;;;7.90;99.90;;;;;;5092858;28;20198;-71
2023/12/09 07:50:03;;;;;;;26.27;15.38;;;8.00;99.90;;;;;;5088509;28;20614;-70
2023/12/09 07:52:30;;;;;;;36.70;15.75;;;8.00;99.90;;;;;;5085602;28;20199;-69
2023/12/09 07:54:57;;;;;;;24.45;14.00;;;8.00;99.90;;;;;;5084368;28;20277;-67
2023/12/09 07:57:24;;;;;;;26.25;14.95;;;8.00;99.90;;;;;;5083685;28;20246;-71
2023/12/09 07:59:51;;;;;;;27.48;12.65;;;8.00;99.90;;;;;;5091580;28;20225;-71
2023/12/09 08:02:17;;;;;;;22.65;12.20;;;8.00;99.90;;;;;;5091320;28;20263;-68
2023/12/09 08:04:44;;;;;;;18.25;12.02;;;8.00;99.90;;;;;;5085233;28;20258;-70
2023/12/09 08:07:13;;;;;;;15.20;11.93;;;8.00;99.90;;;;;;5088003;28;20213;-71
2023/12/09 08:09:40;;;;;;;30.92;12.70;;;8.20;99.90;;;;;;5087981;28;20210;-68
2023/12/09 08:12:08;;;;;;;27.58;13.15;;;8.20;99.90;;;;;;5084937;28;20641;-69
2023/12/09 08:14:35;;;;;;;23.88;11.70;;;8.20;99.90;;;;;;5082536;28;20226;-70
2023/12/09 08:17:02;;;;;;;20.73;11.82;;;8.20;99.90;;;;;;5090209;28;20219;-68
2023/12/09 08:19:29;;;;;;;24.73;11.65;;;8.20;99.90;;;;;;5089069;28;20210;-70
2023/12/09 08:21:56;;;;;;;26.05;12.13;;;8.20;99.90;;;;;;5081218;28;20209;-71
2023/12/09 08:24:24;;;;;;;20.60;11.40;;;8.20;99.90;;;;;;5088044;28;21029;-73
2023/12/09 08:26:51;;;;;;;20.67;12.30;;;8.20;99.90;;;;;;5085753;28;20199;-69
2023/12/09 08:29:18;;;;;;;29.73;12.32;;;8.20;99.90;;;;;;5083525;28;20573;-73
2023/12/09 08:31:46;;;;;;;19.08;11.13;;;8.20;99.90;;;;;;5090943;28;20198;-70
2023/12/09 08:34:13;;;;;;;27.10;12.20;;;8.30;99.90;;;;;;5083925;28;20270;-67
2023/12/09 08:36:41;;;;;;;21.58;10.80;;;8.20;99.90;;;;;;5087301;28;20219;-70
2023/12/09 08:39:09;;;;;;;22.65;10.10;;;8.20;99.90;;;;;;5085832;28;20210;-72
2023/12/09 08:41:37;;;;;;;16.48;10.73;;;8.30;99.90;;;;;;5081692;28;20245;-75
2023/12/09 08:44:04;;;;;;;20.95;11.50;;;8.30;99.90;;;;;;5087404;28;20245;-72
2023/12/09 08:46:31;;;;;;;12.75;8.90;;;8.30;99.90;;;;;;5086549;28;20236;-72
2023/12/09 08:48:58;;;;;;;16.10;10.05;;;8.30;99.90;;;;;;5084553;28;20214;-73
2023/12/09 08:51:25;;;;;;;14.48;9.18;;;8.30;99.90;;;;;;5093289;28;20248;-71
2023/12/09 08:53:52;;;;;;;16.88;8.68;;;8.40;99.90;;;;;;5087876;28;20205;-68
2023/12/09 08:56:19;;;;;;;20.38;9.65;;;8.50;99.90;;;;;;5094678;28;20330;-70
2023/12/09 08:58:48;;;;;;;18.02;9.93;;;8.60;99.90;;;;;;5086614;28;20653;-70
2023/12/09 09:01:15;;;;;;;18.17;8.65;;;8.90;99.90;;;;;;5087077;28;20211;-73
2023/12/09 09:03:43;;;;;;;18.83;9.00;;;9.10;99.90;;;;;;5089807;28;20237;-72
2023/12/09 09:06:10;;;;;;;16.20;8.50;;;9.50;99.90;;;;;;5090067;28;20484;-71
2023/12/09 09:08:37;;;;;;;19.83;8.10;;;9.90;99.90;;;;;;5083772;28;20613;-69
2023/12/09 09:11:04;;;;;;;20.15;8.40;;;10.30;99.90;;;;;;5090358;28;20214;-73
2023/12/09 09:13:31;;;;;;;12.32;6.80;;;10.70;99.90;;;;;;5089992;28;20203;-71
2023/12/09 09:16:00;;;;;;;11.48;6.30;;;10.80;99.90;;;;;;5089881;28;20222;-71
2023/12/09 09:18:27;;;;;;;10.73;5.35;;;11.40;99.90;;;;;;5091051;28;20209;-72
2023/12/09 09:20:54;;;;;;;11.55;6.47;;;12.10;99.90;;;;;;5086575;28;20248;-75
2023/12/09 09:23:21;;;;;;;10.20;5.05;;;12.50;99.90;;;;;;5084062;28;20210;-72
2023/12/09 09:25:48;;;;;;;16.15;6.57;;;13.00;99.90;;;;;;5085681;28;20222;-70
2023/12/09 09:28:15;;;;;;;15.23;5.38;;;13.00;99.90;;;;;;5087054;28;20680;-70
2023/12/09 09:30:42;;;;;;;11.05;4.90;;;13.20;99.90;;;;;;5091454;28;20203;-72
2023/12/09 09:33:10;;;;;;;13.02;5.65;;;13.30;99.90;;;;;;5088352;28;20200;-70
2023/12/09 09:35:37;;;;;;;10.73;5.45;;;12.80;99.90;;;;;;5088450;28;20226;-71
2023/12/09 09:38:04;;;;;;;7.28;3.17;;;13.00;99.90;;;;;;5084614;28;20616;-72
2023/12/09 09:40:31;;;;;;;7.53;4.32;;;13.30;99.90;;;;;;5090814;28;20211;-73
2023/12/09 09:43:00;;;;;;;17.17;5.90;;;13.60;99.90;;;;;;5087366;28;20281;-73
2023/12/09 09:45:28;;;;;;;7.97;4.37;;;14.10;99.90;;;;;;5093870;28;20280;-72
2023/12/09 09:47:56;;;;;;;9.63;4.07;;;14.50;99.90;;;;;;5095603;28;20556;-72
2023/12/09 09:50:26;;;;;;;9.90;3.90;;;14.50;99.90;;;;;;5096439;28;20489;-70
2023/12/09 09:52:54;;;;;;;4.68;2.97;;;14.70;99.90;;;;;;5093689;28;20463;-71
2023/12/09 09:55:23;;;;;;;13.70;4.40;;;14.70;99.90;;;;;;5093983;28;20219;-71
2023/12/09 09:57:50;;;;;;;7.27;3.60;;;15.00;99.90;;;;;;5086574;28;20479;-71
2023/12/09 10:00:21;;;;;;;8.70;4.32;;;14.60;99.90;;;;;;5088712;28;21123;-72
2023/12/09 10:02:50;;;;;;;7.45;3.67;;;13.80;99.90;;;;;;5084457;28;20207;-72
2023/12/09 10:05:20;;;;;;;13.60;5.88;;;12.90;99.90;;;;;;5086526;28;20242;-73
2023/12/09 10:07:48;;;;;;;8.35;4.40;;;12.30;99.90;;;;;;5092479;28;20284;-70
2023/12/09 10:10:16;;;;;;;7.68;4.07;;;11.60;99.90;;;;;;5093859;28;20652;-70
2023/12/09 10:12:43;;;;;;;10.35;3.30;;;11.00;99.90;;;;;;5092434;28;20260;-70
2023/12/09 10:15:11;;;;;;;7.43;4.25;;;10.70;99.90;;;;;;5088245;28;20231;-72
2023/12/09 10:17:39;;;;;;;9.23;5.30;;;10.50;99.90;;;;;;5092394;28;20295;-70
2023/12/09 10:20:09;;;;;;;10.10;3.88;;;10.60;99.90;;;;;;5081469;28;20237;-72
2023/12/09 10:22:36;;;;;;;8.52;3.45;;;10.70;99.90;;;;;;5088505;28;20194;-70
2023/12/09 10:25:06;;;;;;;9.43;4.80;;;11.10;99.90;;;;;;5083184;28;20222;-71
2023/12/09 10:27:34;;;;;;;9.13;3.42;;;11.50;99.90;;;;;;5091623;28;20445;-73
2023/12/09 10:30:03;;;;;;;5.93;3.30;;;11.40;99.90;;;;;;5093754;28;20305;-71
2023/12/09 10:32:30;;;;;;;11.98;4.85;;;11.50;99.90;;;;;;5094325;28;20285;-69
2023/12/09 10:34:57;;;;;;;5.47;3.65;;;11.40;99.90;;;;;;5086487;28;20234;-70
2023/12/09 10:37:24;;;;;;;8.90;4.70;;;11.50;99.90;;;;;;5090399;28;20286;-72
2023/12/09 10:39:52;;;;;;;8.98;4.75;;;11.20;99.90;;;;;;5088010;28;20202;-71
2023/12/09 10:42:22;;;;;;;6.75;4.43;;;11.40;99.90;;;;;;5093803;28;20202;-71
2023/12/09 10:44:49;;;;;;;10.85;4.38;;;11.50;99.90;;;;;;5090332;28;20245;-72
2023/12/09 10:47:16;;;;;;;10.30;4.45;;;11.60;99.90;;;;;;5091665;28;20616;-67
2023/12/09 10:49:43;;;;;;;9.43;4.68;;;11.40;99.90;;;;;;5086910;28;20250;-73
2023/12/09 10:52:10;;;;;;;8.68;4.60;;;11.30;99.90;;;;;;5089318;28;20205;-74
2023/12/09 10:54:38;;;;;;;10.45;4.35;;;11.20;99.90;;;;;;5082592;28;20288;-72
2023/12/09 10:57:07;;;;;;;8.23;3.90;;;11.10;99.90;;;;;;5084186;28;20266;-68
2023/12/09 10:59:35;;;;;;;14.25;4.53;;;11.10;99.90;;;;;;5086791;28;20205;-72
2023/12/09 11:02:03;;;;;;;8.70;5.10;;;10.80;99.90;;;;;;5076787;28;20205;-70
2023/12/09 11:04:31;;;;;;;11.63;3.65;;;10.80;99.90;;;;;;5092387;28;20313;-71
2023/12/09 11:07:03;;;;;;;8.68;4.30;;;10.60;99.90;;;;;;5087711;28;20244;-72
2023/12/09 11:09:31;;;;;;;6.78;3.40;;;10.50;99.90;;;;;;5088509;28;20566;-71
2023/12/09 11:11:59;;;;;;;8.05;3.80;;;10.50;99.90;;;;;;5085099;28;20195;-69
2023/12/09 11:14:27;;;;;;;15.80;3.75;;;10.00;99.90;;;;;;5081324;28;20227;-69
2023/12/09 11:16:57;;;;;;;6.55;3.90;;;9.90;99.90;;;;;;5083662;28;20215;-72
2023/12/09 11:19:25;;;;;;;10.80;4.78;;;9.60;99.90;;;;;;5084651;28;20234;-72
2023/12/09 11:21:53;;;;;;;9.77;3.95;;;9.50;99.90;;;;;;5091368;28;20208;-69
2023/12/09 11:24:20;;;;;;;13.18;5.18;;;9.50;99.90;;;;;;5086217;28;20639;-68
2023/12/09 11:26:48;;;;;;;4.65;3.15;;;9.50;99.90;;;;;;5091871;28;20534;-70
2023/12/09 11:29:18;;;;;;;9.52;4.80;;;9.40;99.90;;;;;;5083391;28;20245;-71
2023/12/09 11:31:46;;;;;;;10.07;4.20;;;9.50;99.90;;;;;;5080904;28;20226;-71
2023/12/09 11:34:16;;;;;;;8.02;4.00;;;9.50;99.90;;;;;;5092744;28;20222;-73
2023/12/09 11:36:45;;;;;;;7.78;4.38;;;9.50;99.90;;;;;;5089799;28;20645;-70
2023/12/09 11:39:14;;;;;;;7.47;4.47;;;9.50;99.90;;;;;;5080535;28;20230;-74
2023/12/09 11:41:42;;;;;;;12.70;4.65;;;9.40;99.90;;;;;;5084929;28;20589;-73
2023/12/09 11:44:10;;;;;;;12.77;5.07;;;9.40;99.90;;;;;;5086840;28;20219;-72
2023/12/09 11:46:37;;;;;;;8.65;4.47;;;9.40;99.90;;;;;;5083451;28;20240;-71
2023/12/09 11:49:06;;;;;;;13.55;5.97;;;9.40;99.90;;;;;;5086611;28;20579;-74
2023/12/09 11:51:36;;;;;;;7.10;5.25;;;9.40;99.90;;;;;;5081739;28;20288;-74
2023/12/09 11:54:04;;;;;;;11.80;5.47;;;9.30;99.90;;;;;;5086488;28;20546;-71
2023/12/09 11:56:32;;;;;;;9.73;6.18;;;9.10;99.90;;;;;;5085778;28;20223;-73
2023/12/09 11:58:59;;;;;;;10.93;5.75;;;9.20;99.90;;;;;;5092408;28;20227;-74
2023/12/09 12:01:29;;;;;;;9.38;6.32;;;9.10;99.90;;;;;;5085438;28;20203;-71
2023/12/09 12:03:56;;;;;;;13.43;7.47;;;8.90;99.90;;;;;;5094374;28;20196;-71
2023/12/09 12:06:24;;;;;;;9.73;7.20;;;8.80;99.90;;;;;;5079782;28;20295;-71
2023/12/09 12:08:53;;;;;;;14.32;6.78;;;8.90;99.90;;;;;;5084014;28;20441;-74
2023/12/09 12:11:23;;;;;;;8.90;6.72;;;9.00;99.90;;;;;;5085974;28;20629;-74
2023/12/09 12:13:51;;;;;;;11.73;5.88;;;8.80;99.90;;;;;;5086471;28;20222;-73
2023/12/09 12:16:18;;;;;;;7.32;4.88;;;8.70;99.90;;;;;;5087442;28;20218;-70
2023/12/09 12:18:46;;;;;;;11.20;5.50;;;8.60;99.90;;;;;;5078151;28;20350;-68
2023/12/09 12:21:13;;;;;;;14.98;6.97;;;8.60;99.90;;;;;;5087464;28;20252;-73
2023/12/09 12:23:40;;;;;;;10.73;6.47;;;8.50;99.90;;;;;;5081461;28;20575;-71
2023/12/09 12:26:11;;;;;;;7.88;5.38;;;8.40;99.90;;;;;;5089075;28;20290;-70
2023/12/09 12:28:38;;;;;;;9.45;5.63;;;8.30;99.90;;;;;;5088544;28;20191;-70
2023/12/09 12:31:06;;;;;;;9.90;5.25;;;8.20;99.90;;;;;;5080652;28;20256;-68
2023/12/09 12:33:33;;;;;;;16.95;6.45;;;8.20;99.90;;;;;;5086631;28;20286;-70
2023/12/09 12:36:00;;;;;;;10.80;6.00;;;8.20;99.90;;;;;;5090356;28;20257;-71
2023/12/09 12:38:28;;;;;;;9.32;4.88;;;8.10;99.90;;;;;;5101150;28;20217;-67
2023/12/09 12:40:56;;;;;;;7.28;5.88;;;8.20;99.90;;;;;;5087644;28;20202;-70